createdAt,value
2023-02-28T00:01:26.946Z,6.78
2023-02-28T00:03:54.382Z,5.63
2023-02-28T00:06:22.228Z,5.63
2023-02-28T00:08:49.632Z,6.65
2023-02-28T00:11:18.103Z,6.20
2023-02-28T00:13:47.861Z,4.80
2023-02-28T00:16:21.675Z,6.60
2023-02-28T00:18:49.436Z,5.22
2023-02-28T00:21:18.136Z,5.85
2023-02-28T00:23:45.347Z,5.18
2023-02-28T00:26:12.832Z,4.88
2023-02-28T00:28:43.494Z,5.20
2023-02-28T00:31:10.866Z,4.68
2023-02-28T00:33:38.009Z,4.93
2023-02-28T00:36:08.735Z,5.15
2023-02-28T00:38:37.994Z,7.72
2023-02-28T00:41:05.888Z,6.07
2023-02-28T00:43:35.149Z,5.28
2023-02-28T00:46:03.727Z,4.75
2023-02-28T00:48:31.304Z,5.10
2023-02-28T00:50:58.905Z,4.32
2023-02-28T00:53:26.351Z,4.63
2023-02-28T00:55:54.127Z,5.20
2023-02-28T00:58:21.411Z,5.05
2023-02-28T01:00:50.277Z,5.13
2023-02-28T01:03:19.106Z,4.97
2023-02-28T01:05:46.915Z,5.13
2023-02-28T01:08:15.614Z,4.43
2023-02-28T01:10:43.362Z,4.88
2023-02-28T01:13:10.587Z,4.78
2023-02-28T01:15:39.201Z,4.75
2023-02-28T01:18:06.444Z,4.40
2023-02-28T01:20:34.248Z,4.65
2023-02-28T01:23:02.341Z,4.63
2023-02-28T01:25:29.914Z,5.03
2023-02-28T01:27:57.325Z,4.13
2023-02-28T01:30:26.756Z,4.68
2023-02-28T01:32:54.687Z,4.55
2023-02-28T01:35:21.797Z,4.88
2023-02-28T01:37:49.189Z,5.30
2023-02-28T01:40:16.293Z,5.13
2023-02-28T01:42:43.765Z,5.53
2023-02-28T01:45:31.218Z,5.00
2023-02-28T01:48:06.693Z,5.00
2023-02-28T01:50:39.956Z,4.80
2023-02-28T01:53:11.593Z,5.32
2023-02-28T01:55:40.660Z,5.20
2023-02-28T01:58:10.158Z,4.57
2023-02-28T02:00:37.913Z,5.53
2023-02-28T02:03:10.037Z,4.97
2023-02-28T02:05:39.542Z,5.47
2023-02-28T02:08:12.732Z,5.60
2023-02-28T02:10:42.466Z,5.32
2023-02-28T02:13:19.614Z,5.18
2023-02-28T02:16:26.955Z,4.93
2023-02-28T02:18:58.716Z,4.60
2023-02-28T02:22:05.633Z,6.13
2023-02-28T02:25:05.426Z,5.32
2023-02-28T02:28:14.386Z,5.63
2023-02-28T02:30:49.263Z,5.70
2023-02-28T02:33:38.474Z,5.38
2023-02-28T02:36:25.791Z,5.55
2023-02-28T02:39:06.878Z,4.45
2023-02-28T02:41:54.989Z,6.05
2023-02-28T02:44:29.297Z,6.28
2023-02-28T02:47:07.777Z,5.97
2023-02-28T02:49:37.837Z,5.30
2023-02-28T02:52:09.152Z,6.22
2023-02-28T02:54:41.697Z,6.25
2023-02-28T02:57:14.733Z,6.25
2023-02-28T02:59:43.209Z,6.35
2023-02-28T03:02:15.008Z,6.03
2023-02-28T03:04:50.015Z,5.90
2023-02-28T03:07:17.153Z,6.18
2023-02-28T03:10:00.256Z,6.45
2023-02-28T03:12:48.474Z,5.78
2023-02-28T03:15:28.574Z,6.05
2023-02-28T03:18:02.610Z,5.68
2023-02-28T03:20:42.801Z,3.80
2023-02-28T03:23:39.758Z,6.60
2023-02-28T03:26:20.596Z,6.03
2023-02-28T03:28:52.290Z,5.97
2023-02-28T03:31:22.905Z,5.97
2023-02-28T03:34:05.912Z,5.93
2023-02-28T03:36:45.017Z,6.50
2023-02-28T03:39:21.590Z,6.00
2023-02-28T03:41:56.500Z,6.35
2023-02-28T03:44:37.542Z,6.07
2023-02-28T03:47:12.166Z,5.75
2023-02-28T03:52:21.262Z,5.55
2023-02-28T03:54:56.011Z,5.25
2023-02-28T03:57:55.099Z,5.57
2023-02-28T04:00:29.945Z,5.30
2023-02-28T04:02:58.557Z,5.43
2023-02-28T04:05:27.900Z,5.63
2023-02-28T04:07:55.287Z,5.03
2023-02-28T04:10:22.626Z,5.10
2023-02-28T04:12:49.966Z,6.22
2023-02-28T04:15:17.213Z,5.95
2023-02-28T04:17:45.050Z,6.32
2023-02-28T04:20:13.108Z,6.38
2023-02-28T04:22:41.033Z,6.72
2023-02-28T04:25:08.748Z,6.75
2023-02-28T04:27:36.119Z,6.82
2023-02-28T04:30:03.324Z,6.60
2023-02-28T04:32:30.789Z,6.70
2023-02-28T04:34:57.894Z,6.32
2023-02-28T04:37:29.892Z,6.40
2023-02-28T04:39:57.102Z,6.78
2023-02-28T04:42:24.470Z,6.35
2023-02-28T04:44:51.634Z,6.22
2023-02-28T04:47:18.995Z,6.70
2023-02-28T04:49:46.184Z,6.72
2023-02-28T04:52:14.324Z,6.22
2023-02-28T04:54:41.497Z,6.15
2023-02-28T04:57:08.951Z,6.22
2023-02-28T04:59:36.215Z,5.50
2023-02-28T05:02:07.814Z,5.78
2023-02-28T05:04:35.752Z,5.78
2023-02-28T05:07:04.147Z,6.75
2023-02-28T05:09:31.339Z,6.80
2023-02-28T05:11:59.172Z,7.50
2023-02-28T05:14:26.650Z,7.35
2023-02-28T05:16:54.038Z,7.07
2023-02-28T05:19:22.455Z,7.75
2023-02-28T05:21:54.349Z,7.65
2023-02-28T05:24:24.639Z,7.70
2023-02-28T05:26:54.068Z,7.75
2023-02-28T05:29:21.861Z,7.82
2023-02-28T05:31:49.637Z,7.82
2023-02-28T05:34:17.172Z,6.85
2023-02-28T05:36:45.284Z,7.68
2023-02-28T05:39:14.301Z,8.90
2023-02-28T05:41:43.222Z,7.13
2023-02-28T05:44:11.714Z,7.88
2023-02-28T05:46:39.720Z,7.28
2023-02-28T05:49:06.915Z,7.80
2023-02-28T05:51:35.509Z,8.55
2023-02-28T05:54:03.066Z,9.10
2023-02-28T05:56:30.528Z,8.98
2023-02-28T05:58:57.742Z,9.48
2023-02-28T06:01:49.411Z,9.82
2023-02-28T06:04:31.131Z,8.55
2023-02-28T06:06:59.376Z,7.68
2023-02-28T06:09:26.488Z,8.25
2023-02-28T06:11:53.698Z,8.45
2023-02-28T06:14:21.636Z,9.38
2023-02-28T06:16:49.151Z,8.57
2023-02-28T06:19:16.687Z,8.23
2023-02-28T06:21:44.563Z,8.10
2023-02-28T06:24:11.939Z,7.60
2023-02-28T06:26:39.328Z,7.50
2023-02-28T06:29:06.506Z,7.40
2023-02-28T06:31:34.094Z,6.95
2023-02-28T06:34:01.474Z,7.78
2023-02-28T06:36:29.200Z,8.38
2023-02-28T06:38:57.229Z,7.32
2023-02-28T06:41:26.852Z,7.63
2023-02-28T06:43:54.539Z,7.45
2023-02-28T06:46:22.162Z,8.27
2023-02-28T06:48:49.467Z,7.68
2023-02-28T06:51:21.310Z,7.30
2023-02-28T06:53:48.509Z,8.43
2023-02-28T06:56:17.455Z,7.50
2023-02-28T06:58:49.683Z,7.78
2023-02-28T07:01:17.006Z,8.30
2023-02-28T07:03:44.415Z,7.88
2023-02-28T07:06:12.388Z,7.85
2023-02-28T07:08:41.180Z,8.35
2023-02-28T07:11:08.351Z,9.65
2023-02-28T07:13:36.286Z,9.32
2023-02-28T07:16:06.855Z,9.23
2023-02-28T07:18:34.489Z,9.73
2023-02-28T07:21:04.444Z,9.43
2023-02-28T07:23:32.086Z,10.73
2023-02-28T07:25:59.761Z,9.98
2023-02-28T07:28:27.146Z,10.25
2023-02-28T07:30:54.282Z,9.60
2023-02-28T07:33:21.456Z,9.50
2023-02-28T07:35:48.685Z,9.73
2023-02-28T07:38:16.521Z,9.35
2023-02-28T07:40:43.692Z,9.25
2023-02-28T07:43:11.677Z,9.25
2023-02-28T07:45:39.526Z,9.13
2023-02-28T07:48:06.726Z,9.05
2023-02-28T07:50:34.369Z,9.38
2023-02-28T07:53:01.657Z,9.43
2023-02-28T07:55:28.889Z,9.23
2023-02-28T07:57:57.643Z,8.90
2023-02-28T08:00:25.346Z,9.10
2023-02-28T08:02:52.507Z,10.05
2023-02-28T08:05:22.057Z,10.27
2023-02-28T08:07:50.942Z,10.30
2023-02-28T08:10:18.385Z,10.75
2023-02-28T08:12:45.869Z,11.00
2023-02-28T08:15:13.152Z,10.98
2023-02-28T08:17:40.720Z,11.95
2023-02-28T08:20:11.526Z,12.90
2023-02-28T08:22:38.587Z,12.10
2023-02-28T08:25:08.395Z,10.90
2023-02-28T08:27:36.176Z,11.48
2023-02-28T08:30:04.760Z,12.02
2023-02-28T08:32:34.379Z,11.73
2023-02-28T08:35:02.963Z,12.65
2023-02-28T08:37:31.703Z,13.13
2023-02-28T08:39:58.986Z,12.40
2023-02-28T08:42:26.721Z,11.65
2023-02-28T08:44:54.204Z,11.10
2023-02-28T08:47:21.915Z,12.57
2023-02-28T08:49:49.374Z,12.32
2023-02-28T08:52:16.602Z,12.82
2023-02-28T08:54:43.727Z,13.25
2023-02-28T08:57:11.189Z,11.60
2023-02-28T08:59:38.295Z,12.63
2023-02-28T09:02:05.867Z,12.80
2023-02-28T09:04:33.083Z,12.30
2023-02-28T09:07:00.541Z,11.82
2023-02-28T09:09:27.843Z,12.48
2023-02-28T09:11:57.333Z,11.63
2023-02-28T09:14:24.664Z,12.02
2023-02-28T09:16:52.349Z,13.32
2023-02-28T09:19:19.737Z,12.85
2023-02-28T09:21:47.076Z,12.75
2023-02-28T09:24:16.244Z,12.77
2023-02-28T09:26:56.567Z,12.73
2023-02-28T09:29:31.544Z,12.52
2023-02-28T09:31:59.920Z,11.57
2023-02-28T09:34:28.499Z,12.00
2023-02-28T09:36:56.255Z,12.02
2023-02-28T09:39:24.560Z,12.80
2023-02-28T09:41:55.872Z,11.75
2023-02-28T09:44:32.450Z,12.20
2023-02-28T09:47:22.966Z,12.10
2023-02-28T09:49:50.600Z,12.52
2023-02-28T09:52:24.576Z,13.00
2023-02-28T09:54:52.056Z,13.95
2023-02-28T09:57:43.683Z,13.38
2023-02-28T10:00:35.176Z,13.65
2023-02-28T10:03:04.041Z,13.40
2023-02-28T10:05:44.772Z,15.07
2023-02-28T10:08:15.587Z,12.75
2023-02-28T10:10:48.097Z,13.73
2023-02-28T10:13:21.620Z,13.73
2023-02-28T10:15:52.560Z,13.43
2023-02-28T10:18:26.509Z,13.77
2023-02-28T10:20:56.907Z,13.90
2023-02-28T10:23:30.004Z,15.45
2023-02-28T10:26:10.147Z,14.40
2023-02-28T10:28:37.473Z,14.75
2023-02-28T10:31:04.926Z,13.95
2023-02-28T10:33:36.150Z,14.93
2023-02-28T10:36:05.241Z,14.68
2023-02-28T10:38:37.769Z,13.57
2023-02-28T10:41:07.557Z,14.88
2023-02-28T10:43:35.416Z,13.95
2023-02-28T10:46:15.989Z,14.93
2023-02-28T10:48:46.312Z,15.18
2023-02-28T10:51:16.539Z,14.98
2023-02-28T10:54:00.121Z,14.82
2023-02-28T10:56:27.962Z,14.38
2023-02-28T10:58:59.098Z,14.88
2023-02-28T11:01:37.400Z,15.95
2023-02-28T11:04:05.178Z,15.25
2023-02-28T11:06:35.773Z,18.55
2023-02-28T11:09:07.311Z,17.60
2023-02-28T11:11:45.330Z,15.65
2023-02-28T11:14:31.470Z,15.90
2023-02-28T11:17:12.796Z,17.33
2023-02-28T11:19:45.439Z,18.02
2023-02-28T11:22:20.991Z,16.90
2023-02-28T11:24:54.316Z,18.17
2023-02-28T11:27:42.707Z,17.02
2023-02-28T11:30:24.735Z,18.17
2023-02-28T11:32:52.284Z,18.67
2023-02-28T11:35:27.567Z,17.80
2023-02-28T11:37:55.366Z,18.08
2023-02-28T11:40:32.676Z,18.38
2023-02-28T11:43:07.534Z,17.45
2023-02-28T11:46:14.599Z,18.35
2023-02-28T11:49:10.206Z,17.90
2023-02-28T11:52:04.411Z,18.50
2023-02-28T11:54:42.584Z,19.00
2023-02-28T11:57:29.918Z,18.35
2023-02-28T12:00:24.785Z,18.13
2023-02-28T12:02:59.372Z,19.30
2023-02-28T12:08:43.926Z,17.92
2023-02-28T12:11:46.723Z,18.45
2023-02-28T12:14:41.324Z,19.17
2023-02-28T12:17:29.736Z,19.65
2023-02-28T12:20:12.940Z,18.75
2023-02-28T12:22:47.405Z,18.52
2023-02-28T12:25:25.511Z,19.75
2023-02-28T12:27:54.351Z,18.08
2023-02-28T12:30:36.645Z,18.48
2023-02-28T12:33:10.809Z,17.67
2023-02-28T12:36:05.756Z,18.35
2023-02-28T12:38:40.661Z,18.73
2023-02-28T12:41:16.964Z,17.95
2023-02-28T12:43:51.332Z,17.35
2023-02-28T12:46:24.347Z,17.20
2023-02-28T12:48:56.660Z,19.45
2023-02-28T12:51:25.933Z,18.27
2023-02-28T12:54:13.647Z,18.38
2023-02-28T12:56:42.230Z,17.45
2023-02-28T12:59:16.655Z,17.65
2023-02-28T13:01:58.601Z,17.63
2023-02-28T13:04:30.611Z,19.42
2023-02-28T13:07:18.690Z,17.60
2023-02-28T13:10:03.535Z,17.30
2023-02-28T13:12:31.506Z,19.13
2023-02-28T13:15:17.406Z,17.92
2023-02-28T13:17:50.732Z,17.42
2023-02-28T13:20:22.581Z,17.52
2023-02-28T13:22:52.157Z,16.42
2023-02-28T13:25:26.915Z,16.58
2023-02-28T13:30:53.005Z,17.20
2023-02-28T13:33:25.636Z,17.05
2023-02-28T13:36:24.017Z,16.58
2023-02-28T13:38:56.359Z,17.08
2023-02-28T13:41:44.627Z,16.83
2023-02-28T13:44:15.748Z,17.27
2023-02-28T13:46:50.484Z,16.30
2023-02-28T13:49:26.267Z,16.27
2023-02-28T13:52:19.370Z,15.88
2023-02-28T13:55:17.214Z,16.45
2023-02-28T13:58:04.392Z,15.88
2023-02-28T14:00:36.009Z,15.68
2023-02-28T14:03:24.329Z,16.10
2023-02-28T14:06:27.462Z,15.20
2023-02-28T14:09:04.382Z,16.58
2023-02-28T14:11:33.867Z,21.33
2023-02-28T14:14:02.059Z,17.05
2023-02-28T14:16:40.910Z,15.43
2023-02-28T14:19:14.782Z,16.45
2023-02-28T14:21:49.310Z,16.25
2023-02-28T14:27:09.370Z,16.75
2023-02-28T14:29:43.738Z,16.20
2023-02-28T14:32:45.133Z,15.50
2023-02-28T14:35:43.588Z,16.08
2023-02-28T14:38:20.039Z,15.40
2023-02-28T14:40:48.881Z,15.63
2023-02-28T14:43:25.823Z,15.50
2023-02-28T14:45:59.279Z,14.98
2023-02-28T14:48:27.932Z,14.38
2023-02-28T14:50:59.707Z,15.60
2023-02-28T14:53:30.381Z,14.07
2023-02-28T14:55:57.593Z,15.23
2023-02-28T14:58:28.165Z,14.50
2023-02-28T15:00:58.692Z,15.85
2023-02-28T15:03:43.051Z,14.35
2023-02-28T15:06:18.536Z,14.57
2023-02-28T15:08:46.499Z,14.18
2023-02-28T15:11:22.287Z,14.63
2023-02-28T15:13:52.799Z,14.68
2023-02-28T15:16:26.889Z,14.82
2023-02-28T15:19:00.011Z,11.93
2023-02-28T15:21:34.947Z,14.73
2023-02-28T15:24:11.811Z,13.85
2023-02-28T15:26:43.443Z,14.48
2023-02-28T15:29:18.193Z,14.57
2023-02-28T15:31:57.477Z,13.88
2023-02-28T15:34:44.876Z,14.45
2023-02-28T15:37:33.260Z,14.82
2023-02-28T15:40:15.504Z,15.65
2023-02-28T15:42:44.968Z,14.18
2023-02-28T15:45:36.971Z,14.02
2023-02-28T15:48:13.582Z,13.63
2023-02-28T15:50:42.258Z,14.60
2023-02-28T15:53:29.570Z,14.43
2023-02-28T15:56:01.081Z,14.00
2023-02-28T15:58:29.093Z,14.23
2023-02-28T16:01:16.307Z,15.65
2023-02-28T16:03:49.605Z,15.13
2023-02-28T16:06:18.151Z,15.00
2023-02-28T16:08:46.586Z,14.77
2023-02-28T16:11:14.050Z,14.25
2023-02-28T16:13:42.163Z,14.15
2023-02-28T16:16:10.323Z,15.20
2023-02-28T16:18:37.743Z,15.40
2023-02-28T16:21:05.308Z,14.38
2023-02-28T16:23:32.448Z,14.73
2023-02-28T16:26:00.988Z,13.82
2023-02-28T16:28:33.534Z,14.07
2023-02-28T16:31:04.017Z,14.00
2023-02-28T16:33:32.830Z,14.05
2023-02-28T16:36:00.646Z,14.32
2023-02-28T16:38:27.918Z,13.32
2023-02-28T16:40:58.987Z,13.77
2023-02-28T16:43:28.003Z,14.15
2023-02-28T16:46:01.120Z,14.75
2023-02-28T16:48:28.772Z,14.63
2023-02-28T16:50:56.281Z,14.35
2023-02-28T16:53:23.361Z,14.55
2023-02-28T16:55:53.030Z,13.68
2023-02-28T16:58:23.048Z,13.57
2023-02-28T17:00:50.861Z,14.40
2023-02-28T17:03:33.009Z,15.10
2023-02-28T17:06:02.367Z,14.73
2023-02-28T17:08:30.993Z,14.55
2023-02-28T17:10:58.154Z,15.15
2023-02-28T17:13:25.535Z,16.58
2023-02-28T17:15:53.210Z,14.40
2023-02-28T17:18:22.198Z,14.60
2023-02-28T17:20:49.730Z,15.27
2023-02-28T17:23:17.565Z,14.52
2023-02-28T17:25:57.541Z,14.13
2023-02-28T17:28:25.644Z,13.68
2023-02-28T17:30:52.928Z,13.13
2023-02-28T17:33:20.140Z,13.98
2023-02-28T17:35:47.369Z,14.57
2023-02-28T17:38:18.094Z,14.35
2023-02-28T17:40:46.204Z,13.30
2023-02-28T17:43:13.382Z,14.07
2023-02-28T17:45:41.105Z,13.70
2023-02-28T17:48:12.342Z,14.52
2023-02-28T17:50:39.842Z,14.48
2023-02-28T17:53:07.537Z,13.15
2023-02-28T17:55:35.497Z,13.23
2023-02-28T17:58:04.106Z,13.68
2023-02-28T18:00:34.518Z,13.50
2023-02-28T18:03:01.972Z,14.80
2023-02-28T18:05:29.390Z,14.85
2023-02-28T18:07:57.471Z,15.15
2023-02-28T18:10:24.792Z,14.13
2023-02-28T18:12:52.917Z,13.95
2023-02-28T18:15:21.983Z,17.30
2023-02-28T18:17:49.959Z,17.23
2023-02-28T18:20:19.454Z,16.48
2023-02-28T18:22:47.760Z,17.65
2023-02-28T18:25:17.290Z,23.48
2023-02-28T18:27:54.430Z,19.55
2023-02-28T18:30:23.534Z,16.83
2023-02-28T18:32:51.100Z,15.20
2023-02-28T18:35:35.050Z,14.55
2023-02-28T18:38:05.747Z,11.18
2023-02-28T18:40:33.423Z,14.70
2023-02-28T18:43:01.139Z,16.67
2023-02-28T18:45:28.599Z,18.23
2023-02-28T18:47:56.015Z,22.05
2023-02-28T18:50:23.390Z,20.27
2023-02-28T18:52:51.520Z,18.15
2023-02-28T18:55:19.144Z,17.25
2023-02-28T18:57:47.836Z,16.58
2023-02-28T19:00:18.377Z,15.88
2023-02-28T19:02:45.919Z,15.82
2023-02-28T19:05:13.317Z,14.88
2023-02-28T19:07:41.063Z,15.50
2023-02-28T19:10:09.666Z,13.77
2023-02-28T19:12:38.469Z,13.55
2023-02-28T19:15:07.049Z,14.25
2023-02-28T19:17:34.498Z,14.00
2023-02-28T19:20:01.716Z,13.38
2023-02-28T19:22:28.998Z,13.25
2023-02-28T19:24:56.586Z,13.25
2023-02-28T19:27:24.179Z,12.82
2023-02-28T19:29:52.916Z,13.25
2023-02-28T19:32:21.217Z,13.23
2023-02-28T19:34:49.182Z,15.57
2023-02-28T19:37:17.016Z,17.02
2023-02-28T19:39:45.805Z,16.75
2023-02-28T19:42:16.459Z,15.85
2023-02-28T19:44:45.831Z,14.95
2023-02-28T19:47:13.282Z,14.77
2023-02-28T19:49:41.213Z,16.25
2023-02-28T19:52:13.251Z,15.88
2023-02-28T19:54:42.603Z,16.38
2023-02-28T19:57:09.787Z,17.13
2023-02-28T19:59:39.738Z,16.83
2023-02-28T20:02:15.336Z,18.80
2023-02-28T20:04:43.249Z,20.77
2023-02-28T20:07:10.922Z,20.67
2023-02-28T20:09:38.002Z,23.55
2023-02-28T20:12:09.306Z,25.13
2023-02-28T20:14:41.879Z,25.90
2023-02-28T20:17:09.066Z,23.50
2023-02-28T20:19:36.617Z,24.33
2023-02-28T20:22:04.259Z,23.17
2023-02-28T20:24:31.446Z,21.02
2023-02-28T20:26:58.714Z,18.27
2023-02-28T20:29:25.786Z,17.33
2023-02-28T20:31:53.538Z,17.27
2023-02-28T20:34:21.313Z,16.83
2023-02-28T20:36:48.441Z,16.88
2023-02-28T20:39:16.023Z,16.88
2023-02-28T20:41:43.157Z,16.15
2023-02-28T20:44:13.768Z,15.73
2023-02-28T20:46:43.286Z,16.70
2023-02-28T20:49:10.908Z,16.70
2023-02-28T20:51:40.210Z,16.08
2023-02-28T20:54:08.835Z,14.90
2023-02-28T20:56:36.355Z,15.63
2023-02-28T20:59:04.125Z,16.40
2023-02-28T21:01:31.734Z,17.42
2023-02-28T21:04:02.027Z,15.25
2023-02-28T21:06:33.539Z,16.83
2023-02-28T21:09:00.828Z,15.75
2023-02-28T21:11:30.287Z,15.65
2023-02-28T21:14:03.345Z,16.83
2023-02-28T21:16:31.008Z,16.35
2023-02-28T21:19:06.352Z,17.35
2023-02-28T21:21:38.429Z,15.38
2023-02-28T21:24:06.958Z,14.25
2023-02-28T21:26:34.196Z,14.05
2023-02-28T21:29:02.835Z,14.63
2023-02-28T21:31:32.710Z,14.55
2023-02-28T21:34:01.049Z,14.05
2023-02-28T21:36:32.942Z,14.77
2023-02-28T21:39:05.246Z,13.35
2023-02-28T21:41:32.502Z,15.00
2023-02-28T21:43:59.820Z,14.05
2023-02-28T21:46:29.110Z,14.23
2023-02-28T21:48:57.560Z,14.48
2023-02-28T21:51:28.376Z,14.40
2023-02-28T21:53:57.927Z,14.95
2023-02-28T21:56:28.593Z,14.40
2023-02-28T21:59:00.606Z,15.18
2023-02-28T22:01:37.719Z,17.35
2023-02-28T22:04:07.329Z,20.02
2023-02-28T22:06:37.140Z,18.92
2023-02-28T22:09:07.324Z,18.27
2023-02-28T22:11:36.491Z,17.45
2023-02-28T22:14:04.117Z,17.40
2023-02-28T22:16:44.100Z,16.88
2023-02-28T22:19:17.554Z,16.00
2023-02-28T22:21:45.847Z,15.63
2023-02-28T22:24:12.949Z,14.23
2023-02-28T22:26:40.149Z,15.07
2023-02-28T22:29:07.685Z,15.02
2023-02-28T22:31:36.227Z,15.10
2023-02-28T22:34:08.798Z,16.17
2023-02-28T22:36:36.631Z,16.20
2023-02-28T22:39:04.862Z,16.20
2023-02-28T22:41:32.868Z,15.73
2023-02-28T22:44:03.650Z,16.50
2023-02-28T22:46:33.094Z,16.70
2023-02-28T22:49:01.619Z,17.25
2023-02-28T22:51:29.895Z,16.27
2023-02-28T22:53:58.415Z,15.98
2023-02-28T22:56:27.768Z,16.60
2023-02-28T22:58:57.899Z,16.02
2023-02-28T23:01:27.072Z,16.63
2023-02-28T23:03:54.772Z,16.25
2023-02-28T23:06:23.316Z,16.83
2023-02-28T23:08:52.249Z,16.98
2023-02-28T23:11:25.425Z,17.40
2023-02-28T23:14:00.260Z,16.15
2023-02-28T23:16:48.607Z,19.00
2023-02-28T23:19:22.411Z,18.67
2023-02-28T23:21:49.885Z,18.83
2023-02-28T23:24:19.321Z,17.70
2023-02-28T23:26:49.382Z,17.67
2023-02-28T23:29:18.551Z,17.75
2023-02-28T23:31:45.975Z,18.58
2023-02-28T23:34:13.836Z,18.08
2023-02-28T23:36:46.381Z,17.90
2023-02-28T23:39:15.928Z,18.30
2023-02-28T23:41:43.595Z,19.45
2023-02-28T23:44:13.928Z,17.75
2023-02-28T23:46:41.522Z,17.98
2023-02-28T23:49:08.629Z,19.80
2023-02-28T23:51:35.985Z,18.55
2023-02-28T23:54:03.298Z,17.90
2023-02-28T23:56:31.282Z,18.55
2023-02-28T23:58:59.329Z,19.08
